createdAt,value
2022-09-21T00:01:42.666Z,17.34
2022-09-21T00:04:11.757Z,17.33
2022-09-21T00:06:40.611Z,17.33
2022-09-21T00:09:09.609Z,17.32
2022-09-21T00:11:38.302Z,17.32
2022-09-21T00:14:10.475Z,17.31
2022-09-21T00:16:40.223Z,17.32
2022-09-21T00:19:10.644Z,17.31
2022-09-21T00:21:39.511Z,17.31
2022-09-21T00:24:08.842Z,17.30
2022-09-21T00:26:37.434Z,17.29
2022-09-21T00:29:06.947Z,17.30
2022-09-21T00:31:36.041Z,17.28
2022-09-21T00:34:07.877Z,17.29
2022-09-21T00:36:38.164Z,17.28
2022-09-21T00:39:07.030Z,17.26
2022-09-21T00:41:35.957Z,17.25
2022-09-21T00:44:26.163Z,17.25
2022-09-21T00:46:57.409Z,17.26
2022-09-21T00:49:27.107Z,17.24
2022-09-21T00:51:57.880Z,17.24
2022-09-21T00:54:29.892Z,17.23
2022-09-21T00:57:01.374Z,17.23
2022-09-21T00:59:31.687Z,17.22
2022-09-21T01:02:01.156Z,17.21
2022-09-21T01:04:30.777Z,17.22
2022-09-21T01:07:04.416Z,17.21
2022-09-21T01:09:33.431Z,17.20
2022-09-21T01:12:15.197Z,17.20
2022-09-21T01:14:55.022Z,17.19
2022-09-21T01:17:31.784Z,17.18
2022-09-21T01:20:20.180Z,17.18
2022-09-21T01:23:01.558Z,17.18
2022-09-21T01:25:36.574Z,17.16
2022-09-21T01:28:13.940Z,17.16
2022-09-21T01:30:48.944Z,17.15
2022-09-21T01:33:25.961Z,17.16
2022-09-21T01:35:58.259Z,17.13
2022-09-21T01:38:29.483Z,17.13
2022-09-21T01:41:02.661Z,17.14
2022-09-21T01:43:36.064Z,17.12
2022-09-21T01:46:08.303Z,17.12
2022-09-21T01:48:41.357Z,17.12
2022-09-21T01:51:13.693Z,17.11
2022-09-21T01:53:44.857Z,17.11
2022-09-21T01:56:16.238Z,17.11
2022-09-21T01:58:47.634Z,17.10
2022-09-21T02:01:20.363Z,17.09
2022-09-21T02:03:52.461Z,17.08
2022-09-21T02:06:21.786Z,17.08
2022-09-21T02:08:50.393Z,17.07
2022-09-21T02:11:19.079Z,17.06
2022-09-21T02:13:50.238Z,17.07
2022-09-21T02:16:35.907Z,17.05
2022-09-21T02:19:12.319Z,17.05
2022-09-21T02:21:49.269Z,17.05
2022-09-21T02:24:25.313Z,17.03
2022-09-21T02:26:57.162Z,17.04
2022-09-21T02:29:30.159Z,17.03
2022-09-21T02:32:05.407Z,17.03
2022-09-21T02:34:37.039Z,17.02
2022-09-21T02:37:10.759Z,17.01
2022-09-21T02:39:44.405Z,17.01
2022-09-21T02:42:15.595Z,17.00
2022-09-21T02:44:49.127Z,17.01
2022-09-21T02:47:21.473Z,16.99
2022-09-21T02:49:53.532Z,16.99
2022-09-21T02:52:23.274Z,16.98
2022-09-21T02:54:53.722Z,16.97
2022-09-21T02:57:24.058Z,16.97
2022-09-21T02:59:53.615Z,16.97
2022-09-21T03:02:23.659Z,16.96
2022-09-21T03:04:52.323Z,16.95
2022-09-21T03:07:21.089Z,16.95
2022-09-21T03:09:49.776Z,16.94
2022-09-21T03:12:18.396Z,16.94
2022-09-21T03:14:47.056Z,16.93
2022-09-21T03:17:15.855Z,16.92
2022-09-21T03:19:46.057Z,16.92
2022-09-21T03:22:14.767Z,16.92
2022-09-21T03:24:49.087Z,16.91
2022-09-21T03:27:19.791Z,16.92
2022-09-21T03:29:48.783Z,16.90
2022-09-21T03:32:17.623Z,16.90
2022-09-21T03:34:47.625Z,16.91
2022-09-21T03:37:17.166Z,16.89
2022-09-21T03:39:47.210Z,16.89
2022-09-21T03:42:16.111Z,16.89
2022-09-21T03:44:44.784Z,16.87
2022-09-21T03:47:13.710Z,16.88
2022-09-21T03:49:42.419Z,16.87
2022-09-21T03:52:12.631Z,16.86
2022-09-21T03:54:41.715Z,16.86
2022-09-21T03:57:10.295Z,16.85
2022-09-21T03:59:39.088Z,16.85
2022-09-21T04:02:07.856Z,16.84
2022-09-21T04:04:37.168Z,16.83
2022-09-21T04:07:05.990Z,16.83
2022-09-21T04:09:36.088Z,16.81
2022-09-21T04:12:04.993Z,16.81
2022-09-21T04:14:33.870Z,16.80
2022-09-21T04:17:02.500Z,16.81
2022-09-21T04:19:31.179Z,16.80
2022-09-21T04:21:59.929Z,16.78
2022-09-21T04:24:31.047Z,16.80
2022-09-21T04:27:01.195Z,16.79
2022-09-21T04:29:30.091Z,16.79
2022-09-21T04:31:58.780Z,16.79
2022-09-21T04:34:28.296Z,16.79
2022-09-21T04:36:57.358Z,16.78
2022-09-21T04:39:26.281Z,16.77
2022-09-21T04:41:55.173Z,16.77
2022-09-21T04:44:25.316Z,16.75
2022-09-21T04:46:54.015Z,16.74
2022-09-21T04:49:22.741Z,16.74
2022-09-21T04:51:51.707Z,16.73
2022-09-21T04:54:20.369Z,16.73
2022-09-21T04:56:49.303Z,16.72
2022-09-21T04:59:18.496Z,16.73
2022-09-21T05:01:48.856Z,16.71
2022-09-21T05:04:17.924Z,16.71
2022-09-21T05:06:46.758Z,16.70
2022-09-21T05:09:33.314Z,16.69
2022-09-21T05:12:03.344Z,16.71
2022-09-21T05:14:32.295Z,16.69
2022-09-21T05:17:02.376Z,16.69
2022-09-21T05:19:31.098Z,16.68
2022-09-21T05:21:59.747Z,16.67
2022-09-21T05:24:28.384Z,16.66
2022-09-21T05:26:57.194Z,16.67
2022-09-21T05:29:26.328Z,16.67
2022-09-21T05:31:57.377Z,16.66
2022-09-21T05:34:37.888Z,16.66
2022-09-21T05:37:10.310Z,16.65
2022-09-21T05:39:39.204Z,16.65
2022-09-21T05:42:08.592Z,16.65
2022-09-21T05:44:37.717Z,16.66
2022-09-21T05:47:13.987Z,16.65
2022-09-21T05:49:51.222Z,16.66
2022-09-21T05:52:24.178Z,16.65
2022-09-21T05:55:01.171Z,16.66
2022-09-21T05:57:36.770Z,16.66
2022-09-21T06:00:13.264Z,16.66
2022-09-21T06:02:51.836Z,16.66
2022-09-21T06:05:22.756Z,16.67
2022-09-21T06:07:51.119Z,16.66
2022-09-21T06:10:19.872Z,16.67
2022-09-21T06:12:48.288Z,16.66
2022-09-21T06:15:17.349Z,16.67
2022-09-21T06:17:45.750Z,16.68
2022-09-21T06:20:14.212Z,16.67
2022-09-21T06:22:44.045Z,16.67
2022-09-21T06:25:12.366Z,16.68
2022-09-21T06:27:40.780Z,16.67
2022-09-21T06:30:10.450Z,16.67
2022-09-21T06:32:39.328Z,16.67
2022-09-21T06:35:08.372Z,16.68
2022-09-21T06:37:38.363Z,16.67
2022-09-21T06:40:09.977Z,16.68
2022-09-21T06:42:38.380Z,16.65
2022-09-21T06:45:08.126Z,16.68
2022-09-21T06:47:36.562Z,16.68
2022-09-21T06:50:05.306Z,16.69
2022-09-21T06:52:45.223Z,16.68
2022-09-21T06:55:18.270Z,16.68
2022-09-21T06:57:46.761Z,16.68
2022-09-21T07:00:15.884Z,16.69
2022-09-21T07:02:45.586Z,16.69
2022-09-21T07:05:16.396Z,16.69
2022-09-21T07:07:45.527Z,16.69
2022-09-21T07:10:18.520Z,16.71
2022-09-21T07:12:51.993Z,16.70
2022-09-21T07:15:21.437Z,16.72
2022-09-21T07:17:52.207Z,16.71
2022-09-21T07:20:21.462Z,16.72
2022-09-21T07:22:49.879Z,16.72
2022-09-21T07:25:18.706Z,16.74
2022-09-21T07:27:48.200Z,16.72
2022-09-21T07:30:18.320Z,16.73
2022-09-21T07:32:47.149Z,16.73
2022-09-21T07:35:16.150Z,16.72
2022-09-21T07:37:44.767Z,16.74
2022-09-21T07:40:13.585Z,16.74
2022-09-21T07:42:44.975Z,16.74
2022-09-21T07:45:13.493Z,16.77
2022-09-21T07:47:43.757Z,16.76
2022-09-21T07:50:12.204Z,16.79
2022-09-21T07:52:40.576Z,16.79
2022-09-21T07:55:09.505Z,16.79
2022-09-21T07:57:55.478Z,16.80
2022-09-21T08:00:24.891Z,16.79
2022-09-21T08:02:54.788Z,16.79
2022-09-21T08:05:23.136Z,16.80
2022-09-21T08:07:53.283Z,16.82
2022-09-21T08:10:21.794Z,16.80
2022-09-21T08:12:50.504Z,16.80
2022-09-21T08:15:44.062Z,16.80
2022-09-21T08:18:08.660Z,16.80
2022-09-21T08:20:37.452Z,16.81
2022-09-21T08:23:05.821Z,16.82
2022-09-21T08:25:34.780Z,16.82
2022-09-21T08:28:07.399Z,16.81
2022-09-21T08:30:38.070Z,16.82
2022-09-21T08:33:08.254Z,16.84
2022-09-21T08:35:37.004Z,16.84
2022-09-21T08:38:05.433Z,16.84
2022-09-21T08:40:34.863Z,16.86
2022-09-21T08:43:05.343Z,16.86
2022-09-21T08:45:35.857Z,16.88
2022-09-21T08:48:06.563Z,16.88
2022-09-21T08:50:39.016Z,16.87
2022-09-21T08:53:10.829Z,16.88
2022-09-21T08:55:39.258Z,16.89
2022-09-21T08:58:23.147Z,16.90
2022-09-21T09:01:06.742Z,16.91
2022-09-21T09:03:50.754Z,16.92
2022-09-21T09:06:26.873Z,16.95
2022-09-21T09:09:16.280Z,16.96
2022-09-21T09:11:53.599Z,16.97
2022-09-21T09:14:38.686Z,17.00
2022-09-21T09:17:20.947Z,17.01
2022-09-21T09:19:52.839Z,17.03
2022-09-21T09:22:25.706Z,17.04
2022-09-21T09:24:56.850Z,17.08
2022-09-21T09:27:29.864Z,17.08
2022-09-21T09:30:04.050Z,17.12
2022-09-21T09:32:41.142Z,17.14
2022-09-21T09:35:19.000Z,17.15
2022-09-21T09:38:06.019Z,17.18
2022-09-21T09:40:46.442Z,17.19
2022-09-21T09:43:22.218Z,17.19
2022-09-21T09:45:58.330Z,17.21
2022-09-21T09:48:35.889Z,17.23
2022-09-21T09:51:04.410Z,17.24
2022-09-21T09:53:36.068Z,17.28
2022-09-21T09:56:04.605Z,17.29
2022-09-21T09:58:39.557Z,17.31
2022-09-21T10:01:08.134Z,17.32
2022-09-21T10:03:37.346Z,17.34
2022-09-21T10:06:05.968Z,17.37
2022-09-21T10:08:44.323Z,17.39
2022-09-21T10:11:13.934Z,17.42
2022-09-21T10:13:44.017Z,17.45
2022-09-21T10:16:19.373Z,17.47
2022-09-21T10:18:49.278Z,17.49
2022-09-21T10:21:21.220Z,17.52
2022-09-21T10:23:54.195Z,17.53
2022-09-21T10:26:22.979Z,17.56
2022-09-21T10:28:57.794Z,17.57
2022-09-21T10:31:28.443Z,17.60
2022-09-21T10:34:08.075Z,17.62
2022-09-21T10:36:38.872Z,17.64
2022-09-21T10:39:30.235Z,17.66
2022-09-21T10:42:06.168Z,17.67
2022-09-21T10:44:38.896Z,17.64
2022-09-21T10:47:18.004Z,17.66
2022-09-21T10:49:50.374Z,17.69
2022-09-21T10:52:20.220Z,17.72
2022-09-21T10:54:52.716Z,17.77
2022-09-21T10:57:24.030Z,17.79
2022-09-21T10:59:52.662Z,17.82
2022-09-21T11:02:35.446Z,17.86
2022-09-21T11:05:09.702Z,17.88
2022-09-21T11:07:42.940Z,17.91
2022-09-21T11:10:18.414Z,17.95
2022-09-21T11:12:54.640Z,17.95
2022-09-21T11:15:34.234Z,17.99
2022-09-21T11:18:07.374Z,18.01
2022-09-21T11:20:42.279Z,18.05
2022-09-21T11:23:22.213Z,18.06
2022-09-21T11:25:59.918Z,18.09
2022-09-21T11:28:33.573Z,18.13
2022-09-21T11:31:21.325Z,18.15
2022-09-21T11:34:01.379Z,18.16
2022-09-21T11:36:35.527Z,18.20
2022-09-21T11:39:08.973Z,18.22
2022-09-21T11:41:53.732Z,18.25
2022-09-21T11:44:53.157Z,18.28
2022-09-21T11:47:49.063Z,18.32
2022-09-21T11:50:36.776Z,18.36
2022-09-21T11:53:25.405Z,18.39
2022-09-21T11:56:12.513Z,18.44
2022-09-21T11:58:46.909Z,18.48
2022-09-21T12:01:24.861Z,18.51
2022-09-21T12:04:07.687Z,18.52
2022-09-21T12:06:47.486Z,18.50
2022-09-21T12:09:38.550Z,18.47
2022-09-21T12:12:10.727Z,18.55
2022-09-21T12:14:45.521Z,18.60
2022-09-21T12:17:17.922Z,18.53
2022-09-21T12:19:50.685Z,18.50
2022-09-21T12:22:22.280Z,18.59
2022-09-21T12:24:52.755Z,18.64
2022-09-21T12:27:27.604Z,18.68
2022-09-21T12:30:02.150Z,18.75
2022-09-21T12:32:40.761Z,18.80
2022-09-21T12:35:16.100Z,18.82
2022-09-21T12:37:48.972Z,18.85
2022-09-21T12:40:25.263Z,18.88
2022-09-21T12:42:57.217Z,18.91
2022-09-21T12:45:30.495Z,18.92
2022-09-21T12:48:00.871Z,18.95
2022-09-21T12:50:34.121Z,18.96
2022-09-21T12:53:03.521Z,18.99
2022-09-21T12:55:36.420Z,19.03
2022-09-21T12:58:17.532Z,19.05
2022-09-21T13:00:52.843Z,19.08
2022-09-21T13:03:27.144Z,19.13
2022-09-21T13:06:11.591Z,19.12
2022-09-21T13:08:43.401Z,19.11
2022-09-21T13:11:12.400Z,19.14
2022-09-21T13:13:51.358Z,19.15
2022-09-21T13:16:27.569Z,19.21
2022-09-21T13:19:00.620Z,19.23
2022-09-21T13:21:30.946Z,19.27
2022-09-21T13:24:01.405Z,19.30
2022-09-21T13:26:33.916Z,19.31
2022-09-21T13:29:19.982Z,19.33
2022-09-21T13:31:58.774Z,19.34
2022-09-21T13:34:35.584Z,19.18
2022-09-21T13:37:31.297Z,19.28
2022-09-21T13:40:41.538Z,19.39
2022-09-21T13:43:46.512Z,19.39
2022-09-21T13:46:46.553Z,19.40
2022-09-21T13:49:21.222Z,19.42
2022-09-21T13:51:55.263Z,19.44
2022-09-21T13:54:26.799Z,19.46
2022-09-21T13:57:09.115Z,19.48
2022-09-21T13:59:41.032Z,19.49
2022-09-21T14:02:24.512Z,19.44
2022-09-21T14:04:54.671Z,19.49
2022-09-21T14:07:30.204Z,19.52
2022-09-21T14:10:00.772Z,19.57
2022-09-21T14:12:35.178Z,19.59
2022-09-21T14:15:27.175Z,19.59
2022-09-21T14:18:21.446Z,19.60
2022-09-21T14:21:11.133Z,19.58
2022-09-21T14:23:41.246Z,19.57
2022-09-21T14:26:33.978Z,19.59
2022-09-21T14:29:09.632Z,19.61
2022-09-21T14:31:38.987Z,19.62
2022-09-21T14:34:14.609Z,19.65
2022-09-21T14:36:47.610Z,19.66
2022-09-21T14:39:19.554Z,19.67
2022-09-21T14:41:51.409Z,19.67
2022-09-21T14:44:22.510Z,19.64
2022-09-21T14:47:10.838Z,19.64
2022-09-21T14:49:57.483Z,19.67
2022-09-21T14:52:38.150Z,19.66
2022-09-21T14:55:17.223Z,19.65
2022-09-21T14:57:55.987Z,19.66
2022-09-21T15:00:26.608Z,19.66
2022-09-21T15:03:18.959Z,19.67
2022-09-21T15:05:50.612Z,19.68
2022-09-21T15:08:52.567Z,19.71
2022-09-21T15:11:23.832Z,19.73
2022-09-21T15:14:21.312Z,19.73
2022-09-21T15:16:51.704Z,19.71
2022-09-21T15:19:25.566Z,19.73
2022-09-21T15:21:54.812Z,19.72
2022-09-21T15:24:29.371Z,19.66
2022-09-21T15:27:05.883Z,19.72
2022-09-21T15:29:35.181Z,19.74
2022-09-21T15:32:04.220Z,19.75
2022-09-21T15:34:33.008Z,19.77
2022-09-21T15:37:09.188Z,19.79
2022-09-21T15:39:41.212Z,19.80
2022-09-21T15:42:18.185Z,19.82
2022-09-21T15:44:49.034Z,19.83
2022-09-21T15:47:20.315Z,19.85
2022-09-21T15:49:49.000Z,19.87
2022-09-21T15:52:24.996Z,19.90
2022-09-21T15:54:58.277Z,19.91
2022-09-21T15:57:36.314Z,19.94
2022-09-21T16:00:09.135Z,19.95
2022-09-21T16:02:40.747Z,19.95
2022-09-21T16:05:14.271Z,19.97
2022-09-21T16:07:42.740Z,19.98
2022-09-21T16:10:41.039Z,19.97
2022-09-21T16:13:36.383Z,19.98
2022-09-21T16:16:06.977Z,19.99
2022-09-21T16:18:43.193Z,20.00
2022-09-21T16:21:20.350Z,20.00
2022-09-21T16:23:49.622Z,20.02
2022-09-21T16:26:24.684Z,20.02
2022-09-21T16:29:19.273Z,20.00
2022-09-21T16:31:50.342Z,19.99
2022-09-21T16:34:22.695Z,19.95
2022-09-21T16:36:52.873Z,19.89
2022-09-21T16:39:22.743Z,19.83
2022-09-21T16:42:00.088Z,19.78
2022-09-21T16:44:31.435Z,19.76
2022-09-21T16:47:01.265Z,19.72
2022-09-21T16:49:31.470Z,19.68
2022-09-21T16:52:01.349Z,19.67
2022-09-21T16:54:30.224Z,19.66
2022-09-21T16:57:00.355Z,19.64
2022-09-21T16:59:33.067Z,19.62
2022-09-21T17:02:04.312Z,19.61
2022-09-21T17:04:34.321Z,19.59
2022-09-21T17:07:04.974Z,19.57
2022-09-21T17:09:35.439Z,19.56
2022-09-21T17:12:06.230Z,19.54
2022-09-21T17:14:37.848Z,19.52
2022-09-21T17:17:08.582Z,19.52
2022-09-21T17:19:37.109Z,19.50
2022-09-21T17:22:07.004Z,19.49
2022-09-21T17:24:50.423Z,19.48
2022-09-21T17:27:21.700Z,19.46
2022-09-21T17:29:53.865Z,19.44
2022-09-21T17:32:24.333Z,19.44
2022-09-21T17:34:56.366Z,19.43
2022-09-21T17:37:26.002Z,19.42
2022-09-21T17:39:54.649Z,19.39
2022-09-21T17:42:25.959Z,19.39
2022-09-21T17:45:12.674Z,19.38
2022-09-21T17:47:42.091Z,19.37
2022-09-21T17:50:20.526Z,19.35
2022-09-21T17:53:07.365Z,19.34
2022-09-21T17:55:36.408Z,19.33
2022-09-21T17:58:12.198Z,19.33
2022-09-21T18:00:51.210Z,19.32
2022-09-21T18:03:22.957Z,19.29
2022-09-21T18:05:55.806Z,19.29
2022-09-21T18:08:26.391Z,19.28
2022-09-21T18:11:04.385Z,19.26
2022-09-21T18:13:39.732Z,19.25
2022-09-21T18:16:21.314Z,19.24
2022-09-21T18:18:55.799Z,19.23
2022-09-21T18:21:25.785Z,19.21
2022-09-21T18:24:09.229Z,19.18
2022-09-21T18:26:40.370Z,19.16
2022-09-21T18:29:38.911Z,19.15
2022-09-21T18:32:24.878Z,19.13
2022-09-21T18:35:15.698Z,19.12
2022-09-21T18:37:50.518Z,19.11
2022-09-21T18:40:25.869Z,19.09
2022-09-21T18:42:59.468Z,19.09
2022-09-21T18:45:31.887Z,19.07
2022-09-21T18:48:21.423Z,19.06
2022-09-21T18:50:57.552Z,19.04
2022-09-21T18:53:30.905Z,19.03
2022-09-21T18:56:00.139Z,19.01
2022-09-21T18:58:30.503Z,19.00
2022-09-21T19:01:00.407Z,19.00
2022-09-21T19:03:30.818Z,18.99
2022-09-21T19:06:13.280Z,18.97
2022-09-21T19:08:47.548Z,18.96
2022-09-21T19:11:21.936Z,18.96
2022-09-21T19:13:55.769Z,18.95
2022-09-21T19:16:32.260Z,18.95
2022-09-21T19:19:12.189Z,18.93
2022-09-21T19:21:45.769Z,18.93
2022-09-21T19:24:21.540Z,18.92
2022-09-21T19:26:55.889Z,18.92
2022-09-21T19:29:39.300Z,18.90
2022-09-21T19:32:15.367Z,18.90
2022-09-21T19:34:45.731Z,18.89
2022-09-21T19:37:14.303Z,18.88
2022-09-21T19:39:44.814Z,18.86
2022-09-21T19:42:26.509Z,18.85
2022-09-21T19:45:06.461Z,18.85
2022-09-21T19:47:38.178Z,18.83
2022-09-21T19:50:15.496Z,18.83
2022-09-21T19:52:44.567Z,18.82
2022-09-21T19:55:33.111Z,18.81
2022-09-21T19:58:19.556Z,18.80
2022-09-21T20:00:52.091Z,18.79
2022-09-21T20:03:31.086Z,18.78
2022-09-21T20:06:05.725Z,18.76
2022-09-21T20:08:38.895Z,18.76
2022-09-21T20:11:13.285Z,18.75
2022-09-21T20:13:53.063Z,18.75
2022-09-21T20:16:34.388Z,18.73
2022-09-21T20:19:18.117Z,18.72
2022-09-21T20:21:50.115Z,18.72
2022-09-21T20:24:22.164Z,18.69
2022-09-21T20:26:51.743Z,18.69
2022-09-21T20:29:21.820Z,18.68
2022-09-21T20:31:51.801Z,18.67
2022-09-21T20:34:20.339Z,18.67
2022-09-21T20:36:50.016Z,18.65
2022-09-21T20:39:18.410Z,18.64
2022-09-21T20:41:47.546Z,18.64
2022-09-21T20:44:15.901Z,18.64
2022-09-21T20:46:44.325Z,18.62
2022-09-21T20:49:15.238Z,18.62
2022-09-21T20:51:43.616Z,18.60
2022-09-21T20:54:13.283Z,18.60
2022-09-21T20:56:41.636Z,18.59
2022-09-21T20:59:09.950Z,18.57
2022-09-21T21:01:38.621Z,18.57
2022-09-21T21:04:07.031Z,18.56
2022-09-21T21:06:35.455Z,18.54
2022-09-21T21:09:03.837Z,18.54
2022-09-21T21:11:33.673Z,18.53
2022-09-21T21:14:02.961Z,18.51
2022-09-21T21:16:31.970Z,18.50
2022-09-21T21:19:00.864Z,18.48
2022-09-21T21:21:29.314Z,18.48
2022-09-21T21:24:15.290Z,18.49
2022-09-21T21:27:01.413Z,18.47
2022-09-21T21:29:31.146Z,18.46
2022-09-21T21:32:00.496Z,18.46
2022-09-21T21:34:29.553Z,18.44
2022-09-21T21:36:58.004Z,18.44
2022-09-21T21:39:26.492Z,18.42
2022-09-21T21:41:56.284Z,18.41
2022-09-21T21:44:24.667Z,18.41
2022-09-21T21:46:53.870Z,18.40
2022-09-21T21:49:22.348Z,18.39
2022-09-21T21:51:50.827Z,18.36
2022-09-21T21:54:19.869Z,18.37
2022-09-21T21:56:48.193Z,18.34
2022-09-21T21:59:18.301Z,18.34
2022-09-21T22:01:46.822Z,18.35
2022-09-21T22:04:15.278Z,18.33
2022-09-21T22:06:43.937Z,18.32
2022-09-21T22:09:14.594Z,18.30
2022-09-21T22:11:43.138Z,18.31
2022-09-21T22:14:12.807Z,18.30
2022-09-21T22:16:42.573Z,18.27
2022-09-21T22:19:11.235Z,18.27
2022-09-21T22:21:40.985Z,18.28
2022-09-21T22:24:10.536Z,18.26
2022-09-21T22:26:40.606Z,18.25
2022-09-21T22:29:10.185Z,18.25
2022-09-21T22:31:41.049Z,18.24
2022-09-21T22:34:12.533Z,18.24
2022-09-21T22:36:41.605Z,18.23
2022-09-21T22:39:10.055Z,18.23
2022-09-21T22:41:39.721Z,18.21
2022-09-21T22:44:08.528Z,18.22
2022-09-21T22:46:37.284Z,18.19
2022-09-21T22:49:05.739Z,18.19
2022-09-21T22:51:37.954Z,18.19
2022-09-21T22:54:06.602Z,18.18
2022-09-21T22:56:35.598Z,18.19
2022-09-21T22:59:05.703Z,18.17
2022-09-21T23:01:36.254Z,18.16
2022-09-21T23:04:06.736Z,18.16
2022-09-21T23:06:39.363Z,18.14
2022-09-21T23:09:14.096Z,18.13
2022-09-21T23:11:47.166Z,18.12
2022-09-21T23:14:16.477Z,18.12
2022-09-21T23:16:45.136Z,18.11
2022-09-21T23:19:16.234Z,18.10
2022-09-21T23:21:49.472Z,18.10
2022-09-21T23:24:18.449Z,18.09
2022-09-21T23:26:47.546Z,18.09
2022-09-21T23:29:16.514Z,18.08
2022-09-21T23:31:46.267Z,18.07
2022-09-21T23:34:16.659Z,18.06
2022-09-21T23:36:46.401Z,18.05
2022-09-21T23:39:16.052Z,18.05
2022-09-21T23:41:44.972Z,18.04
2022-09-21T23:44:13.604Z,18.04
2022-09-21T23:46:42.685Z,18.04
2022-09-21T23:49:11.360Z,18.02
2022-09-21T23:51:39.918Z,18.01
2022-09-21T23:54:09.710Z,18.00
2022-09-21T23:56:38.565Z,17.98
2022-09-21T23:59:07.037Z,17.96
